createdAt,value
2018-06-22T00:00:08.795Z,60.58
2018-06-22T00:01:08.819Z,60.58
2018-06-22T00:02:08.794Z,60.58
2018-06-22T00:03:08.795Z,60.26
2018-06-22T00:04:08.801Z,60.45
2018-06-22T00:05:08.793Z,60.38
2018-06-22T00:06:08.796Z,60.64
2018-06-22T00:07:08.794Z,60.77
2018-06-22T00:08:08.793Z,60.45
2018-06-22T00:09:08.798Z,60.74
2018-06-22T00:10:08.793Z,60.35
2018-06-22T00:11:08.798Z,61.02
2018-06-22T00:12:08.795Z,60.55
2018-06-22T00:13:08.795Z,60.74
2018-06-22T00:14:08.792Z,60.58
2018-06-22T00:15:08.796Z,60.74
2018-06-22T00:16:08.796Z,60.74
2018-06-22T00:17:08.792Z,60.83
2018-06-22T00:18:08.792Z,61.51
2018-06-22T00:19:08.795Z,61.51
2018-06-22T00:20:08.795Z,61.12
2018-06-22T00:21:08.791Z,61.02
2018-06-22T00:22:08.791Z,61.51
2018-06-22T00:23:08.791Z,61.51
2018-06-22T00:24:08.790Z,62.27
2018-06-22T00:25:08.790Z,61.79
2018-06-22T00:26:08.792Z,62.17
2018-06-22T00:27:08.791Z,62.17
2018-06-22T00:28:08.792Z,62.17
2018-06-22T00:29:08.789Z,61.88
2018-06-22T00:30:08.791Z,61.79
2018-06-22T00:31:08.789Z,62.17
2018-06-22T00:32:08.791Z,62.17
2018-06-22T00:33:08.793Z,62.46
2018-06-22T00:34:08.787Z,62.08
2018-06-22T00:35:08.788Z,62.27
2018-06-22T00:36:08.789Z,61.88
2018-06-22T00:37:08.787Z,61.88
2018-06-22T00:38:08.787Z,61.69
2018-06-22T00:39:08.789Z,62.37
2018-06-22T00:40:08.788Z,61.88
2018-06-22T00:41:08.787Z,61.79
2018-06-22T00:42:08.790Z,62.17
2018-06-22T00:43:08.791Z,61.98
2018-06-22T00:44:08.785Z,62.08
2018-06-22T00:45:08.784Z,61.98
2018-06-22T00:46:08.784Z,61.88
2018-06-22T00:47:08.796Z,62.17
2018-06-22T00:48:08.787Z,62.46
2018-06-22T00:49:08.784Z,62.55
2018-06-22T00:50:08.782Z,62.17
2018-06-22T00:51:08.782Z,62.46
2018-06-22T00:52:08.784Z,62.55
2018-06-22T00:53:08.784Z,62.94
2018-06-22T00:54:08.781Z,63.39
2018-06-22T00:55:08.780Z,63.70
2018-06-22T00:56:08.781Z,63.96
2018-06-22T00:57:08.779Z,63.48
2018-06-22T00:58:08.777Z,63.76
2018-06-22T00:59:08.777Z,63.86
2018-06-22T01:00:08.779Z,63.86
2018-06-22T01:01:08.777Z,64.34
2018-06-22T01:02:08.777Z,64.25
2018-06-22T01:03:08.777Z,64.62
2018-06-22T01:04:08.781Z,64.43
2018-06-22T01:05:08.775Z,64.43
2018-06-22T01:06:08.774Z,64.34
2018-06-22T01:07:08.780Z,64.53
2018-06-22T01:08:08.774Z,64.25
2018-06-22T01:09:08.770Z,64.43
2018-06-22T01:10:08.771Z,64.72
2018-06-22T01:11:08.781Z,64.62
2018-06-22T01:12:08.769Z,64.25
2018-06-22T01:13:08.769Z,64.43
2018-06-22T01:14:08.768Z,65.11
2018-06-22T01:15:08.767Z,65.01
2018-06-22T01:16:08.767Z,65.11
2018-06-22T01:17:08.766Z,65.30
2018-06-22T01:18:08.765Z,65.58
2018-06-22T01:19:08.763Z,65.68
2018-06-22T01:20:08.765Z,65.77
2018-06-22T01:21:08.761Z,65.87
2018-06-22T01:22:08.774Z,65.87
2018-06-22T01:23:08.761Z,65.77
2018-06-22T01:24:08.762Z,65.77
2018-06-22T01:25:08.761Z,66.25
2018-06-22T01:26:08.761Z,66.25
2018-06-22T01:27:08.760Z,66.73
2018-06-22T01:28:08.759Z,67.02
2018-06-22T01:29:08.756Z,66.60
2018-06-22T01:30:08.756Z,66.70
2018-06-22T01:31:08.756Z,66.70
2018-06-22T01:32:08.764Z,66.99
2018-06-22T01:33:08.761Z,66.89
2018-06-22T01:34:08.760Z,66.89
2018-06-22T01:35:08.753Z,67.18
2018-06-22T01:36:08.749Z,67.27
2018-06-22T01:37:08.746Z,67.08
2018-06-22T01:38:08.746Z,67.27
2018-06-22T01:39:08.744Z,67.08
2018-06-22T01:40:08.745Z,67.27
2018-06-22T01:41:08.743Z,67.18
2018-06-22T01:42:08.741Z,67.18
2018-06-22T01:43:08.743Z,66.99
2018-06-22T01:44:08.740Z,66.99
2018-06-22T01:45:08.738Z,66.99
2018-06-22T01:46:08.738Z,66.89
2018-06-22T01:47:08.749Z,67.18
2018-06-22T01:48:08.735Z,67.18
2018-06-22T01:49:08.735Z,66.99
2018-06-22T01:50:08.733Z,66.79
2018-06-22T01:51:08.733Z,66.89
2018-06-22T01:52:08.731Z,67.18
2018-06-22T01:53:08.728Z,67.36
2018-06-22T01:54:08.728Z,66.89
2018-06-22T01:55:08.728Z,66.89
2018-06-22T01:56:08.727Z,66.70
2018-06-22T01:57:08.724Z,67.18
2018-06-22T01:58:08.727Z,67.27
2018-06-22T01:59:08.722Z,67.46
2018-06-22T02:00:08.724Z,66.89
2018-06-22T02:01:08.720Z,67.08
2018-06-22T02:02:08.717Z,67.18
2018-06-22T02:03:08.718Z,67.05
2018-06-22T02:04:08.717Z,67.65
2018-06-22T02:05:08.714Z,67.65
2018-06-22T02:06:08.716Z,67.84
2018-06-22T02:07:08.722Z,67.08
2018-06-22T02:08:08.713Z,67.18
2018-06-22T02:09:08.710Z,67.14
2018-06-22T02:10:08.713Z,67.14
2018-06-22T02:11:08.728Z,67.24
2018-06-22T02:12:08.706Z,66.99
2018-06-22T02:13:08.704Z,66.66
2018-06-22T02:14:08.703Z,66.85
2018-06-22T02:15:08.712Z,66.89
2018-06-22T02:16:08.704Z,66.95
2018-06-22T02:17:08.699Z,66.95
2018-06-22T02:18:08.697Z,66.76
2018-06-22T02:19:08.696Z,66.95
2018-06-22T02:20:08.697Z,66.76
2018-06-22T02:21:08.692Z,66.85
2018-06-22T02:22:08.691Z,66.95
2018-06-22T02:23:08.690Z,67.33
2018-06-22T02:24:08.690Z,67.24
2018-06-22T02:25:08.688Z,66.76
2018-06-22T02:26:08.687Z,66.85
2018-06-22T02:27:08.684Z,66.85
2018-06-22T02:28:08.685Z,66.95
2018-06-22T02:29:08.682Z,66.76
2018-06-22T02:30:08.702Z,66.85
2018-06-22T02:31:08.679Z,66.95
2018-06-22T02:32:08.679Z,66.95
2018-06-22T02:33:08.674Z,66.85
2018-06-22T02:34:08.675Z,66.95
2018-06-22T02:35:08.672Z,66.95
2018-06-22T02:36:08.671Z,66.95
2018-06-22T02:37:08.670Z,66.85
2018-06-22T02:38:08.668Z,66.76
2018-06-22T02:39:08.666Z,66.76
2018-06-22T02:40:08.668Z,67.14
2018-06-22T02:41:08.663Z,67.14
2018-06-22T02:42:08.764Z,67.33
2018-06-22T02:43:08.668Z,67.24
2018-06-22T02:44:08.659Z,67.14
2018-06-22T02:45:08.657Z,66.85
2018-06-22T02:46:08.655Z,67.33
2018-06-22T02:47:08.656Z,67.05
2018-06-22T02:48:08.651Z,67.33
2018-06-22T02:49:08.650Z,67.62
2018-06-22T02:50:08.651Z,67.33
2018-06-22T02:51:08.646Z,67.33
2018-06-22T02:52:08.646Z,67.62
2018-06-22T02:53:08.642Z,67.81
2018-06-22T02:54:08.642Z,67.81
2018-06-22T02:55:08.640Z,67.62
2018-06-22T02:56:08.639Z,67.58
2018-06-22T02:57:08.636Z,67.81
2018-06-22T02:58:08.637Z,67.30
2018-06-22T02:59:08.632Z,67.40
2018-06-22T03:00:08.631Z,67.40
2018-06-22T03:01:08.631Z,67.43
2018-06-22T03:02:08.628Z,67.40
2018-06-22T03:03:08.626Z,67.77
2018-06-22T03:04:08.624Z,67.40
2018-06-22T03:05:08.624Z,66.82
2018-06-22T03:06:08.622Z,67.05
2018-06-22T03:07:08.618Z,67.05
2018-06-22T03:08:08.618Z,66.76
2018-06-22T03:09:08.613Z,66.63
2018-06-22T03:10:08.613Z,66.47
2018-06-22T03:11:08.612Z,66.28
2018-06-22T03:12:08.611Z,66.53
2018-06-22T03:13:08.609Z,65.71
2018-06-22T03:14:08.607Z,66.09
2018-06-22T03:15:08.605Z,66.09
2018-06-22T03:16:08.602Z,66.00
2018-06-22T03:17:08.600Z,65.90
2018-06-22T03:18:36.169Z,65.90
2018-06-22T03:19:08.596Z,66.00
2018-06-22T03:20:08.597Z,65.61
2018-06-22T03:21:08.593Z,65.61
2018-06-22T03:22:08.592Z,65.61
2018-06-22T03:23:08.602Z,65.42
2018-06-22T03:24:08.586Z,64.85
2018-06-22T03:25:08.586Z,64.94
2018-06-22T03:26:08.586Z,65.14
2018-06-22T03:27:08.583Z,65.04
2018-06-22T03:28:08.585Z,65.14
2018-06-22T03:29:08.580Z,65.42
2018-06-22T03:30:08.579Z,64.94
2018-06-22T03:31:08.576Z,65.23
2018-06-22T03:32:08.603Z,65.04
2018-06-22T03:33:08.574Z,65.04
2018-06-22T03:34:08.570Z,64.85
2018-06-22T03:35:08.570Z,65.14
2018-06-22T03:36:08.568Z,64.65
2018-06-22T03:37:08.566Z,64.56
2018-06-22T03:38:08.590Z,64.56
2018-06-22T03:39:08.561Z,64.37
2018-06-22T03:40:08.559Z,64.65
2018-06-22T03:41:08.557Z,64.37
2018-06-22T03:42:08.557Z,64.37
2018-06-22T03:43:08.556Z,64.37
2018-06-22T03:44:08.552Z,64.65
2018-06-22T03:45:08.554Z,64.75
2018-06-22T03:46:08.551Z,64.65
2018-06-22T03:47:08.548Z,64.09
2018-06-22T03:48:08.546Z,63.89
2018-06-22T03:49:08.545Z,64.22
2018-06-22T03:50:08.542Z,63.83
2018-06-22T03:51:08.541Z,63.35
2018-06-22T03:52:08.543Z,63.26
2018-06-22T03:53:08.538Z,63.26
2018-06-22T03:54:08.536Z,63.54
2018-06-22T03:55:08.535Z,63.54
2018-06-22T03:56:08.535Z,63.35
2018-06-22T03:57:08.532Z,63.07
2018-06-22T03:58:08.530Z,63.07
2018-06-22T03:59:08.528Z,62.87
2018-06-22T04:00:08.528Z,63.07
2018-06-22T04:01:08.528Z,62.59
2018-06-22T04:02:08.524Z,62.49
2018-06-22T04:03:08.529Z,62.49
2018-06-22T04:04:08.522Z,62.87
2018-06-22T04:05:08.531Z,62.30
2018-06-22T04:06:08.522Z,62.11
2018-06-22T04:07:08.517Z,62.01
2018-06-22T04:08:08.580Z,62.21
2018-06-22T04:09:08.514Z,62.11
2018-06-22T04:10:08.515Z,62.21
2018-06-22T04:11:08.514Z,62.11
2018-06-22T04:12:08.512Z,62.01
2018-06-22T04:13:08.519Z,62.01
2018-06-22T04:14:08.507Z,62.11
2018-06-22T04:15:08.506Z,62.01
2018-06-22T04:16:08.507Z,62.21
2018-06-22T04:17:08.503Z,62.11
2018-06-22T04:18:08.507Z,61.44
2018-06-22T04:19:08.502Z,61.44
2018-06-22T04:20:08.499Z,61.63
2018-06-22T04:21:08.498Z,61.44
2018-06-22T04:22:08.497Z,61.38
2018-06-22T04:23:08.502Z,61.47
2018-06-22T04:24:08.494Z,61.28
2018-06-22T04:25:08.493Z,61.28
2018-06-22T04:26:08.493Z,61.09
2018-06-22T04:27:08.493Z,61.19
2018-06-22T04:28:08.490Z,61.28
2018-06-22T04:29:08.490Z,61.85
2018-06-22T04:30:08.487Z,62.24
2018-06-22T04:31:08.486Z,62.33
2018-06-22T04:32:08.486Z,62.24
2018-06-22T04:33:08.485Z,61.47
2018-06-22T04:34:08.481Z,61.19
2018-06-22T04:35:08.480Z,61.38
2018-06-22T04:36:08.480Z,61.85
2018-06-22T04:37:08.477Z,62.04
2018-06-22T04:38:08.476Z,62.14
2018-06-22T04:39:08.481Z,61.95
2018-06-22T04:40:08.474Z,62.14
2018-06-22T04:41:08.474Z,61.76
2018-06-22T04:42:08.470Z,61.92
2018-06-22T04:43:08.470Z,61.72
2018-06-22T04:44:08.470Z,62.40
2018-06-22T04:45:08.467Z,62.40
2018-06-22T04:46:08.468Z,62.68
2018-06-22T04:47:08.465Z,62.40
2018-06-22T04:48:08.468Z,62.01
2018-06-22T04:49:08.464Z,62.49
2018-06-22T04:50:08.461Z,62.40
2018-06-22T04:51:08.460Z,62.68
2018-06-22T04:52:08.458Z,62.59
2018-06-22T04:53:08.456Z,62.59
2018-06-22T04:54:08.482Z,62.78
2018-06-22T04:55:08.455Z,62.49
2018-06-22T04:56:08.456Z,62.49
2018-06-22T04:57:08.451Z,62.49
2018-06-22T04:58:08.450Z,62.01
2018-06-22T04:59:08.451Z,62.30
2018-06-22T05:00:08.448Z,62.49
2018-06-22T05:01:08.444Z,62.30
2018-06-22T05:02:08.443Z,62.11
2018-06-22T05:03:08.442Z,61.95
2018-06-22T05:04:08.445Z,61.76
2018-06-22T05:05:08.441Z,62.04
2018-06-22T05:06:08.439Z,62.24
2018-06-22T05:07:08.445Z,62.14
2018-06-22T05:08:08.435Z,62.04
2018-06-22T05:09:08.433Z,61.47
2018-06-22T05:10:08.432Z,61.38
2018-06-22T05:11:08.431Z,60.90
2018-06-22T05:12:08.432Z,61.28
2018-06-22T05:13:08.429Z,61.38
2018-06-22T05:14:08.427Z,61.47
2018-06-22T05:15:08.426Z,61.28
2018-06-22T05:16:08.428Z,60.71
2018-06-22T05:17:08.425Z,60.61
2018-06-22T05:18:08.422Z,61.57
2018-06-22T05:19:08.422Z,60.71
2018-06-22T05:20:08.420Z,60.61
2018-06-22T05:21:08.420Z,60.52
2018-06-22T05:22:08.419Z,60.71
2018-06-22T05:23:08.418Z,60.42
2018-06-22T05:24:08.421Z,60.52
2018-06-22T05:25:08.417Z,60.42
2018-06-22T05:26:08.414Z,60.42
2018-06-22T05:27:08.414Z,60.16
2018-06-22T05:28:08.413Z,59.78
2018-06-22T05:29:08.411Z,59.59
2018-06-22T05:30:08.410Z,59.11
2018-06-22T05:31:08.409Z,59.69
2018-06-22T05:32:08.421Z,59.52
2018-06-22T05:33:08.406Z,58.18
2018-06-22T05:34:08.405Z,56.13
2018-06-22T05:35:08.409Z,54.44
2018-06-22T05:36:08.448Z,53.60
2018-06-22T05:37:08.405Z,53.03
2018-06-22T05:38:08.404Z,52.26
2018-06-22T05:39:08.405Z,52.83
2018-06-22T05:40:08.405Z,53.19
2018-06-22T05:41:08.405Z,53.00
2018-06-22T05:42:08.416Z,54.22
2018-06-22T05:43:08.406Z,53.83
2018-06-22T05:44:08.410Z,54.41
2018-06-22T05:45:08.407Z,55.44
2018-06-22T05:46:08.409Z,55.63
2018-06-22T05:47:08.407Z,55.63
2018-06-22T05:48:08.408Z,55.63
2018-06-22T05:49:08.408Z,56.01
2018-06-22T05:50:08.411Z,57.13
2018-06-22T05:51:08.417Z,56.46
2018-06-22T05:52:08.411Z,56.94
2018-06-22T05:53:08.410Z,57.04
2018-06-22T05:54:08.417Z,56.94
2018-06-22T05:55:08.415Z,56.94
2018-06-22T05:56:08.411Z,56.84
2018-06-22T05:57:08.418Z,56.84
2018-06-22T05:58:08.411Z,56.75
2018-06-22T05:59:08.411Z,57.13
2018-06-22T06:00:08.413Z,56.65
2018-06-22T06:01:08.413Z,56.84
2018-06-22T06:02:08.410Z,57.13
2018-06-22T06:03:08.414Z,57.51
2018-06-22T06:04:08.411Z,57.42
2018-06-22T06:05:08.410Z,57.51
2018-06-22T06:06:08.411Z,57.23
2018-06-22T06:07:08.441Z,57.32
2018-06-22T06:08:08.411Z,57.13
2018-06-22T06:09:08.413Z,57.42
2018-06-22T06:10:08.409Z,57.70
2018-06-22T06:11:08.415Z,57.23
2018-06-22T06:12:08.421Z,57.61
2018-06-22T06:13:08.409Z,57.61
2018-06-22T06:14:08.407Z,57.42
2018-06-22T06:15:08.422Z,56.75
2018-06-22T06:16:08.412Z,56.68
2018-06-22T06:17:08.413Z,56.49
2018-06-22T06:18:08.408Z,56.49
2018-06-22T06:19:08.428Z,56.49
2018-06-22T06:20:08.429Z,56.49
2018-06-22T06:21:08.413Z,56.77
2018-06-22T06:22:08.409Z,56.30
2018-06-22T06:23:08.412Z,56.10
2018-06-22T06:24:08.407Z,56.59
2018-06-22T06:25:08.407Z,56.49
2018-06-22T06:26:08.409Z,57.04
2018-06-22T06:27:08.432Z,56.97
2018-06-22T06:28:08.406Z,56.87
2018-06-22T06:29:08.418Z,56.59
2018-06-22T06:30:08.407Z,56.65
2018-06-22T06:31:08.407Z,56.56
2018-06-22T06:32:08.407Z,56.49
2018-06-22T06:33:08.410Z,56.49
2018-06-22T06:34:08.411Z,56.37
2018-06-22T06:35:08.549Z,56.94
2018-06-22T06:36:08.408Z,56.65
2018-06-22T06:37:08.486Z,56.94
2018-06-22T06:38:08.405Z,57.04
2018-06-22T06:39:08.406Z,56.75
2018-06-22T06:40:08.407Z,56.56
2018-06-22T06:41:08.408Z,57.04
2018-06-22T06:42:08.406Z,57.61
2018-06-22T06:43:08.406Z,57.42
2018-06-22T06:44:08.420Z,57.42
2018-06-22T06:45:08.413Z,57.51
2018-06-22T06:46:08.412Z,57.23
2018-06-22T06:47:08.405Z,57.61
2018-06-22T06:48:08.406Z,57.32
2018-06-22T06:49:08.406Z,57.32
2018-06-22T06:50:08.409Z,57.42
2018-06-22T06:51:08.406Z,57.73
2018-06-22T06:52:08.407Z,58.37
2018-06-22T06:53:08.406Z,57.99
2018-06-22T06:54:08.405Z,59.23
2018-06-22T06:55:08.405Z,60.29
2018-06-22T06:56:08.406Z,61.05
2018-06-22T06:57:08.402Z,60.67
2018-06-22T06:58:08.409Z,60.96
2018-06-22T06:59:08.402Z,62.01
2018-06-22T07:00:08.403Z,60.96
2018-06-22T07:01:08.402Z,61.91
2018-06-22T07:02:08.403Z,62.87
2018-06-22T07:03:08.406Z,62.59
2018-06-22T07:04:08.402Z,63.16
2018-06-22T07:05:08.593Z,63.16
2018-06-22T07:06:08.402Z,63.35
2018-06-22T07:07:08.406Z,63.93
2018-06-22T07:08:08.403Z,64.37
2018-06-22T07:09:08.401Z,64.28
2018-06-22T07:10:08.399Z,64.22
2018-06-22T07:11:08.401Z,65.94
2018-06-22T07:12:08.399Z,66.80
2018-06-22T07:13:08.414Z,66.80
2018-06-22T07:14:08.400Z,67.37
2018-06-22T07:15:08.398Z,66.80
2018-06-22T07:16:08.398Z,67.56
2018-06-22T07:17:08.476Z,67.94
2018-06-22T07:18:08.483Z,68.62
2018-06-22T07:19:08.417Z,68.62
2018-06-22T07:20:08.403Z,69.00
2018-06-22T07:21:08.395Z,68.52
2018-06-22T07:22:08.398Z,69.92
2018-06-22T07:23:08.397Z,69.92
2018-06-22T07:24:08.397Z,70.59
2018-06-22T07:25:08.394Z,70.68
2018-06-22T07:26:08.399Z,70.59
2018-06-22T07:27:08.400Z,71.26
2018-06-22T07:28:08.392Z,71.64
2018-06-22T07:29:08.391Z,72.41
2018-06-22T07:30:08.392Z,72.31
2018-06-22T07:31:08.391Z,74.22
2018-06-22T07:32:08.390Z,74.51
2018-06-22T07:33:08.389Z,74.57
2018-06-22T07:34:08.387Z,75.71
2018-06-22T07:35:08.390Z,74.76
2018-06-22T07:36:08.388Z,75.81
2018-06-22T07:37:08.389Z,76.57
2018-06-22T07:38:09.416Z,76.86
2018-06-22T07:39:08.409Z,76.39
2018-06-22T07:40:08.399Z,76.67
2018-06-22T07:41:09.574Z,76.96
2018-06-22T07:42:08.381Z,77.34
2018-06-22T07:43:08.384Z,77.15
2018-06-22T07:44:08.497Z,77.44
2018-06-22T07:45:08.710Z,77.53
2018-06-22T07:46:08.382Z,77.53
2018-06-22T07:47:08.378Z,77.34
2018-06-22T07:48:08.380Z,77.72
2018-06-22T07:49:08.380Z,77.63
2018-06-22T07:50:08.380Z,77.15
2018-06-22T07:51:08.375Z,78.01
2018-06-22T07:52:08.381Z,78.30
2018-06-22T07:53:08.373Z,78.58
2018-06-22T07:54:08.382Z,78.30
2018-06-22T07:55:08.381Z,79.49
2018-06-22T07:56:08.437Z,78.63
2018-06-22T07:57:08.920Z,78.43
2018-06-22T07:58:08.373Z,78.34
2018-06-22T07:59:08.502Z,77.48
2018-06-22T08:00:08.368Z,77.38
2018-06-22T08:01:08.382Z,77.09
2018-06-22T08:02:08.367Z,77.48
2018-06-22T08:03:08.366Z,78.43
2018-06-22T08:04:08.366Z,77.86
2018-06-22T08:05:08.424Z,76.90
2018-06-22T08:06:08.421Z,77.86
2018-06-22T08:07:08.368Z,76.71
2018-06-22T08:08:08.370Z,76.42
2018-06-22T08:09:08.364Z,76.90
2018-06-22T08:10:08.365Z,76.52
2018-06-22T08:11:08.360Z,76.81
2018-06-22T08:12:08.506Z,76.14
2018-06-22T08:13:08.359Z,75.27
2018-06-22T08:14:08.359Z,76.42
2018-06-22T08:15:08.359Z,76.71
2018-06-22T08:16:08.363Z,76.23
2018-06-22T08:17:08.360Z,78.05
2018-06-22T08:18:08.357Z,77.48
2018-06-22T08:19:08.356Z,78.34
2018-06-22T08:20:08.357Z,77.76
2018-06-22T08:21:08.356Z,77.67
2018-06-22T08:22:08.371Z,78.14
2018-06-22T08:23:08.355Z,78.34
2018-06-22T08:24:08.354Z,78.91
2018-06-22T08:25:08.356Z,79.49
2018-06-22T08:26:08.352Z,78.81
2018-06-22T08:27:08.352Z,79.20
2018-06-22T08:28:08.355Z,79.39
2018-06-22T08:29:08.351Z,79.68
2018-06-22T08:30:08.352Z,80.44
2018-06-22T08:31:08.505Z,79.58
2018-06-22T08:32:08.349Z,79.96
2018-06-22T08:33:08.350Z,79.00
2018-06-22T08:34:08.351Z,79.10
2018-06-22T08:35:08.353Z,77.95
2018-06-22T08:36:08.348Z,78.34
2018-06-22T08:37:08.353Z,79.25
2018-06-22T08:38:08.347Z,79.54
2018-06-22T08:39:08.348Z,79.83
2018-06-22T08:40:08.348Z,80.11
2018-06-22T08:41:08.347Z,79.35
2018-06-22T08:42:08.449Z,80.59
2018-06-22T08:43:08.342Z,81.16
2018-06-22T08:44:08.391Z,81.16
2018-06-22T08:45:08.560Z,80.69
2018-06-22T08:46:08.340Z,80.69
2018-06-22T08:47:08.339Z,80.30
2018-06-22T08:48:08.338Z,80.11
2018-06-22T08:49:08.337Z,81.16
2018-06-22T08:50:08.338Z,81.07
2018-06-22T08:51:08.336Z,80.98
2018-06-22T08:52:08.338Z,81.93
2018-06-22T08:53:08.334Z,81.65
2018-06-22T08:54:08.335Z,82.31
2018-06-22T08:55:08.334Z,81.93
2018-06-22T08:56:08.332Z,82.51
2018-06-22T08:57:08.399Z,82.03
2018-06-22T08:58:08.332Z,81.74
2018-06-22T08:59:08.328Z,80.98
2018-06-22T09:00:08.336Z,81.26
2018-06-22T09:01:08.388Z,80.55
2018-06-22T09:02:08.336Z,81.74
2018-06-22T09:03:08.324Z,81.89
2018-06-22T09:04:08.323Z,81.74
2018-06-22T09:05:08.770Z,82.12
2018-06-22T09:06:08.319Z,81.03
2018-06-22T09:07:08.320Z,81.13
2018-06-22T09:08:08.329Z,81.13
2018-06-22T09:09:08.321Z,82.18
2018-06-22T09:10:08.325Z,81.13
2018-06-22T09:11:08.314Z,81.89
2018-06-22T09:12:08.314Z,81.41
2018-06-22T09:13:08.404Z,81.89
2018-06-22T09:14:08.311Z,81.32
2018-06-22T09:15:08.309Z,80.46
2018-06-22T09:16:08.315Z,81.13
2018-06-22T09:17:08.320Z,81.22
2018-06-22T09:18:08.590Z,80.27
2018-06-22T09:19:08.415Z,80.17
2018-06-22T09:20:08.307Z,81.22
2018-06-22T09:21:08.324Z,81.13
2018-06-22T09:22:08.306Z,81.32
2018-06-22T09:23:08.376Z,80.17
2018-06-22T09:24:08.459Z,81.22
2018-06-22T09:25:08.354Z,81.13
2018-06-22T09:26:08.366Z,81.13
2018-06-22T09:27:08.309Z,81.32
2018-06-22T09:28:08.297Z,81.03
2018-06-22T09:29:08.401Z,80.93
2018-06-22T09:30:08.513Z,82.28
2018-06-22T09:31:08.288Z,81.89
2018-06-22T09:32:08.287Z,81.70
2018-06-22T09:33:08.337Z,81.16
2018-06-22T09:34:08.284Z,80.69
2018-06-22T09:35:08.283Z,80.98
2018-06-22T09:36:08.286Z,80.79
2018-06-22T09:37:08.292Z,80.88
2018-06-22T09:38:08.279Z,80.59
2018-06-22T09:39:08.284Z,79.93
2018-06-22T09:40:08.278Z,80.02
2018-06-22T09:41:08.278Z,79.54
2018-06-22T09:42:08.318Z,79.73
2018-06-22T09:43:08.284Z,79.83
2018-06-22T09:44:08.287Z,79.06
2018-06-22T09:45:08.330Z,78.01
2018-06-22T09:46:11.438Z,79.16
2018-06-22T09:47:08.273Z,79.25
2018-06-22T09:48:08.273Z,79.16
2018-06-22T09:49:08.280Z,78.87
2018-06-22T09:50:08.438Z,79.06
2018-06-22T09:51:08.270Z,79.64
2018-06-22T09:52:08.269Z,80.02
2018-06-22T09:53:08.351Z,79.44
2018-06-22T09:54:08.461Z,79.64
2018-06-22T09:55:08.321Z,79.64
2018-06-22T09:56:08.529Z,79.73
2018-06-22T09:57:08.263Z,79.83
2018-06-22T09:58:08.316Z,79.44
2018-06-22T09:59:08.263Z,78.97
2018-06-22T10:00:08.260Z,78.87
2018-06-22T10:01:08.262Z,79.54
2018-06-22T10:02:08.328Z,79.54
2018-06-22T10:03:08.626Z,78.49
2018-06-22T10:04:08.257Z,79.44
2018-06-22T10:05:08.256Z,79.54
2018-06-22T10:06:08.735Z,79.06
2018-06-22T10:07:08.258Z,79.44
2018-06-22T10:08:08.268Z,78.68
2018-06-22T10:09:09.469Z,79.44
2018-06-22T10:10:08.654Z,79.83
2018-06-22T10:11:08.284Z,79.44
2018-06-22T10:12:08.252Z,80.88
2018-06-22T10:13:08.318Z,80.50
2018-06-22T10:14:08.251Z,80.21
2018-06-22T10:15:08.341Z,79.39
2018-06-22T10:16:08.248Z,79.20
2018-06-22T10:17:08.246Z,78.86
2018-06-22T10:18:08.398Z,78.27
2018-06-22T10:19:08.246Z,75.43
2018-06-22T10:20:08.249Z,72.30
2018-06-22T10:21:08.246Z,71.21
2018-06-22T10:22:08.246Z,70.64
2018-06-22T10:23:08.337Z,70.92
2018-06-22T10:24:08.293Z,70.73
2018-06-22T10:25:08.247Z,71.21
2018-06-22T10:26:08.256Z,71.63
2018-06-22T10:27:09.237Z,70.76
2018-06-22T10:28:08.404Z,70.48
2018-06-22T10:29:08.251Z,70.76
2018-06-22T10:30:08.251Z,69.90
2018-06-22T10:31:08.304Z,70.86
2018-06-22T10:32:08.255Z,70.25
2018-06-22T10:33:08.255Z,70.25
2018-06-22T10:34:08.261Z,70.64
2018-06-22T10:35:08.262Z,71.17
2018-06-22T10:36:08.266Z,74.33
2018-06-22T10:37:08.260Z,75.01
2018-06-22T10:38:08.263Z,75.01
2018-06-22T10:39:09.267Z,76.12
2018-06-22T10:40:08.262Z,75.93
2018-06-22T10:41:08.264Z,75.45
2018-06-22T10:42:08.265Z,75.83
2018-06-22T10:43:08.266Z,76.69
2018-06-22T10:44:08.265Z,76.94
2018-06-22T10:45:08.267Z,77.61
2018-06-22T10:46:08.327Z,77.13
2018-06-22T10:47:08.268Z,77.04
2018-06-22T10:48:08.621Z,76.75
2018-06-22T10:49:08.268Z,77.13
2018-06-22T10:50:08.270Z,77.04
2018-06-22T10:51:08.268Z,76.94
2018-06-22T10:52:08.269Z,77.51
2018-06-22T10:53:08.270Z,76.84
2018-06-22T10:54:08.299Z,77.80
2018-06-22T10:55:08.270Z,77.42
2018-06-22T10:56:08.280Z,76.08
2018-06-22T10:57:08.270Z,76.37
2018-06-22T10:58:08.274Z,77.04
2018-06-22T10:59:08.270Z,76.94
2018-06-22T11:00:08.271Z,75.60
2018-06-22T11:01:08.274Z,75.93
2018-06-22T11:02:08.277Z,76.12
2018-06-22T11:03:08.272Z,75.64
2018-06-22T11:04:08.272Z,75.35
2018-06-22T11:05:09.259Z,75.26
2018-06-22T11:06:08.324Z,75.64
2018-06-22T11:07:08.275Z,75.73
2018-06-22T11:08:08.298Z,74.30
2018-06-22T11:09:08.274Z,74.58
2018-06-22T11:10:08.292Z,74.77
2018-06-22T11:11:08.283Z,74.87
2018-06-22T11:12:08.298Z,74.49
2018-06-22T11:13:08.274Z,73.86
2018-06-22T11:14:08.278Z,73.72
2018-06-22T11:15:08.359Z,73.72
2018-06-22T11:16:08.283Z,75.16
2018-06-22T11:17:08.434Z,74.58
2018-06-22T11:18:08.277Z,74.33
2018-06-22T11:19:08.278Z,73.95
2018-06-22T11:20:08.347Z,74.15
2018-06-22T11:21:08.339Z,74.15
2018-06-22T11:22:08.656Z,72.71
2018-06-22T11:23:08.284Z,73.09
2018-06-22T11:24:08.281Z,72.71
2018-06-22T11:25:08.295Z,73.09
2018-06-22T11:26:08.281Z,72.61
2018-06-22T11:27:08.358Z,71.75
2018-06-22T11:28:08.287Z,73.28
2018-06-22T11:29:08.380Z,73.76
2018-06-22T11:30:08.451Z,73.47
2018-06-22T11:31:08.353Z,73.28
2018-06-22T11:32:08.346Z,72.71
2018-06-22T11:33:08.437Z,72.80
2018-06-22T11:34:08.288Z,72.80
2018-06-22T11:35:08.290Z,71.27
2018-06-22T11:36:08.567Z,71.66
2018-06-22T11:37:08.385Z,71.56
2018-06-22T11:38:08.290Z,72.80
2018-06-22T11:39:08.292Z,72.52
2018-06-22T11:40:08.292Z,72.52
2018-06-22T11:41:08.292Z,71.40
2018-06-22T11:42:08.294Z,70.67
2018-06-22T11:43:08.488Z,70.67
2018-06-22T11:44:08.298Z,68.66
2018-06-22T11:45:08.298Z,69.04
2018-06-22T11:46:08.345Z,69.42
2018-06-22T11:47:08.309Z,70.00
2018-06-22T11:48:08.334Z,68.85
2018-06-22T11:49:08.305Z,67.89
2018-06-22T11:50:08.309Z,67.69
2018-06-22T11:51:08.342Z,68.37
2018-06-22T11:52:08.307Z,67.02
2018-06-22T11:53:08.308Z,67.12
2018-06-22T11:54:08.310Z,67.69
2018-06-22T11:55:08.312Z,67.99
2018-06-22T11:56:08.316Z,69.42
2018-06-22T11:57:08.315Z,68.95
2018-06-22T11:58:08.331Z,68.75
2018-06-22T11:59:08.363Z,69.62
2018-06-22T12:00:08.322Z,68.95
2018-06-22T12:01:08.327Z,68.27
2018-06-22T12:02:08.321Z,67.32
2018-06-22T12:03:08.820Z,67.69
2018-06-22T12:04:08.333Z,67.79
2018-06-22T12:05:08.325Z,69.52
2018-06-22T12:06:08.329Z,70.57
2018-06-22T12:07:08.329Z,70.86
2018-06-22T12:08:08.330Z,69.90
2018-06-22T12:09:09.275Z,68.66
2018-06-22T12:10:08.719Z,69.52
2018-06-22T12:11:08.370Z,68.14
2018-06-22T12:12:08.336Z,68.81
2018-06-22T12:13:08.431Z,69.48
2018-06-22T12:14:08.477Z,69.68
2018-06-22T12:15:08.342Z,69.77
2018-06-22T12:16:08.346Z,69.77
2018-06-22T12:17:08.348Z,69.48
2018-06-22T12:18:08.349Z,69.01
2018-06-22T12:19:08.411Z,69.48
2018-06-22T12:20:08.350Z,69.77
2018-06-22T12:21:08.346Z,69.48
2018-06-22T12:22:08.443Z,69.39
2018-06-22T12:23:08.350Z,68.75
2018-06-22T12:24:08.353Z,68.85
2018-06-22T12:25:08.350Z,67.06
2018-06-22T12:26:08.350Z,66.13
2018-06-22T12:27:08.352Z,63.99
2018-06-22T12:28:08.355Z,60.97
2018-06-22T12:29:08.355Z,58.44
2018-06-22T12:30:08.367Z,54.18
2018-06-22T12:31:08.362Z,52.09
2018-06-22T12:32:08.365Z,50.74
2018-06-22T12:33:08.389Z,50.67
2018-06-22T12:34:08.371Z,50.47
2018-06-22T12:35:08.377Z,50.35
2018-06-22T12:36:08.383Z,50.71
2018-06-22T12:37:08.384Z,52.45
2018-06-22T12:38:08.390Z,52.81
2018-06-22T12:39:08.394Z,51.72
2018-06-22T12:40:08.399Z,51.98
2018-06-22T12:41:08.402Z,51.96
2018-06-22T12:42:08.405Z,52.03
2018-06-22T12:43:08.410Z,54.05
2018-06-22T12:44:08.416Z,55.66
2018-06-22T12:45:08.419Z,56.04
2018-06-22T12:46:08.421Z,56.14
2018-06-22T12:47:08.428Z,57.93
2018-06-22T12:48:08.432Z,59.28
2018-06-22T12:49:08.434Z,59.66
2018-06-22T12:50:08.437Z,59.86
2018-06-22T12:51:08.440Z,59.19
2018-06-22T12:52:08.444Z,59.64